Abram, Texas
Current Conditions -  °F | °C
As of 4:53 PM on Wednesday 17 Dec 2014 (Local Time) from KMFE Reporting Station
Broken Clouds Broken Clouds  
Wind Chill: 74°   Ceiling: 4200
Heat Index: 74°   Visibility: 10mi
Dew Point: 65°   Wind: 17mph
Humidity: 73%   Direction: 140°SE
Pressure: 29.97"   Gusts: NA
Location:  26.2167°N, 98.325°W
Report Text: KMFE 172253Z 14015KT 10SM BKN042 23/18 A2997 RMK AO2 SLP146 T02330183
Loading
Personal Weather Stations






























Interactive Weather Map New forecast layout! Learn more

10-Day Weather Forecast

Advertisements
Track Severe Weather on mobile